createdAt,value
2018-06-29T00:00:18.757Z,95775.94
2018-06-29T00:02:48.935Z,95772.22
2018-06-29T00:05:54.702Z,95768.68
2018-06-29T00:08:24.909Z,95767.84
2018-06-29T00:10:58.963Z,95763.14
2018-06-29T00:13:58.945Z,95734.25
2018-06-29T00:19:34.945Z,95761.48
2018-06-29T00:22:11.687Z,95760.67
2018-06-29T00:24:48.156Z,95764.73
2018-06-29T00:27:36.611Z,95763.44
2018-06-29T00:30:10.434Z,95765.56
2018-06-29T00:32:51.496Z,95761.02
2018-06-29T00:35:23.479Z,95755.55
2018-06-29T00:37:57.195Z,95760.55
2018-06-29T00:40:30.373Z,95750.84
2018-06-29T00:43:08.229Z,95750.53
2018-06-29T00:45:40.050Z,95741.47
2018-06-29T00:48:12.091Z,95742.58
2018-06-29T00:50:46.783Z,95747.58
2018-06-29T00:53:16.746Z,95743.34
2018-06-29T00:55:47.660Z,95752.54
2018-06-29T00:58:18.107Z,95754.19
2018-06-29T01:00:48.094Z,95756.61
2018-06-29T01:03:22.580Z,95753.05
2018-06-29T01:05:56.935Z,95749.81
2018-06-29T01:08:30.767Z,95750.13
2018-06-29T01:11:00.983Z,95741.27
2018-06-29T01:13:31.174Z,95735.91
2018-06-29T01:16:00.392Z,95732.30
2018-06-29T01:18:31.351Z,95729.84
2018-06-29T01:21:03.805Z,95733.73
2018-06-29T01:23:33.999Z,95734.25
2018-06-29T01:26:04.449Z,95733.92
2018-06-29T01:28:37.139Z,95730.73
2018-06-29T01:31:08.880Z,95733.80
2018-06-29T01:33:42.452Z,95730.10
2018-06-29T01:36:14.307Z,95729.80
2018-06-29T01:38:46.174Z,95726.58
2018-06-29T01:41:23.352Z,95721.27
2018-06-29T01:44:00.700Z,95721.22
2018-06-29T01:46:34.959Z,95720.02
2018-06-29T01:49:12.600Z,95716.77
2018-06-29T01:51:50.390Z,95719.36
2018-06-29T01:54:36.178Z,95725.84
2018-06-29T01:57:11.943Z,95718.33
2018-06-29T01:59:41.098Z,95720.29
2018-06-29T02:02:16.042Z,95715.23
2018-06-29T02:07:36.227Z,95720.84
2018-06-29T02:10:40.641Z,95717.89
2018-06-29T02:16:03.670Z,95717.34
2018-06-29T02:18:39.201Z,95714.44
2018-06-29T02:21:28.320Z,95704.86
2018-06-29T02:26:43.009Z,95703.97
2018-06-29T02:29:20.828Z,95705.55
2018-06-29T02:31:51.825Z,95702.24
2018-06-29T02:34:24.450Z,95700.95
2018-06-29T02:37:06.553Z,95697.41
2018-06-29T02:39:40.281Z,95696.58
2018-06-29T02:42:13.076Z,95694.64
2018-06-29T02:44:44.519Z,95696.93
2018-06-29T02:47:15.341Z,95692.51
2018-06-29T02:49:59.647Z,95697.03
2018-06-29T02:52:34.980Z,95697.85
2018-06-29T02:55:06.959Z,95695.86
2018-06-29T02:57:38.535Z,95697.34
2018-06-29T03:00:09.823Z,95687.63
2018-06-29T03:02:41.823Z,95694.91
2018-06-29T03:05:16.640Z,95691.67
2018-06-29T03:07:47.767Z,95692.33
2018-06-29T03:10:19.286Z,95688.59
2018-06-29T03:12:53.912Z,95683.69
2018-06-29T03:15:31.762Z,95679.63
2018-06-29T03:18:15.380Z,95681.30
2018-06-29T03:20:57.337Z,95685.49
2018-06-29T03:23:28.157Z,95684.61
2018-06-29T03:26:03.361Z,95686.41
2018-06-29T03:28:42.909Z,95699.07
2018-06-29T03:31:26.804Z,95691.92
2018-06-29T03:33:56.789Z,95697.03
2018-06-29T03:36:26.014Z,95693.34
2018-06-29T03:38:55.363Z,95692.95
2018-06-29T03:41:24.736Z,95686.46
2018-06-29T03:43:54.568Z,95679.98
2018-06-29T03:46:29.538Z,95682.39
2018-06-29T03:49:02.836Z,95672.34
2018-06-29T03:51:33.409Z,95677.38
2018-06-29T03:54:04.438Z,95672.78
2018-06-29T03:56:36.507Z,95676.31
2018-06-29T03:59:08.860Z,95671.94
2018-06-29T04:01:48.746Z,95665.00
2018-06-29T04:04:18.058Z,95668.58
2018-06-29T04:06:54.258Z,95664.54
2018-06-29T04:09:27.613Z,95668.70
2018-06-29T04:12:00.880Z,95666.59
2018-06-29T04:14:31.670Z,95668.68
2018-06-29T04:17:01.482Z,95664.89
2018-06-29T04:19:33.496Z,95667.13
2018-06-29T04:22:04.821Z,95649.02
2018-06-29T04:24:39.332Z,95660.25
2018-06-29T04:27:11.741Z,95654.91
2018-06-29T04:29:41.851Z,95655.98
2018-06-29T04:32:11.780Z,95663.38
2018-06-29T04:34:43.684Z,95666.82
2018-06-29T04:37:17.182Z,95669.23
2018-06-29T04:39:47.304Z,95666.61
2018-06-29T04:42:16.280Z,95660.51
2018-06-29T04:44:45.728Z,95664.67
2018-06-29T04:47:17.300Z,95666.15
2018-06-29T04:49:46.608Z,95672.27
2018-06-29T04:52:27.327Z,95673.67
2018-06-29T04:54:56.426Z,95678.01
2018-06-29T04:57:25.746Z,95687.69
2018-06-29T04:59:56.488Z,95688.23
2018-06-29T05:02:26.037Z,95691.12
2018-06-29T05:04:57.003Z,95693.55
2018-06-29T05:07:26.236Z,95690.91
2018-06-29T05:09:55.271Z,95690.25
2018-06-29T05:12:24.990Z,95691.47
2018-06-29T05:14:54.514Z,95691.03
2018-06-29T05:17:28.122Z,95680.30
2018-06-29T05:19:57.400Z,95688.39
2018-06-29T05:22:26.565Z,95685.21
2018-06-29T05:24:55.648Z,95688.73
2018-06-29T05:27:26.773Z,95686.40
2018-06-29T05:29:56.167Z,95697.20
2018-06-29T05:32:26.547Z,95692.45
2018-06-29T05:35:00.356Z,95698.75
2018-06-29T05:37:45.109Z,95698.67
2018-06-29T05:40:16.733Z,95698.05
2018-06-29T05:43:05.925Z,95702.47
2018-06-29T05:45:35.868Z,95695.72
2018-06-29T05:48:35.370Z,95697.02
2018-06-29T05:51:12.940Z,95699.23
2018-06-29T05:53:48.752Z,95695.53
2018-06-29T05:56:19.485Z,95699.19
2018-06-29T05:58:56.344Z,95692.44
2018-06-29T06:01:28.070Z,95692.02
2018-06-29T06:04:04.280Z,95689.33
2018-06-29T06:06:34.772Z,95691.93
2018-06-29T06:09:17.300Z,95697.45
2018-06-29T06:11:50.186Z,95692.30
2018-06-29T06:14:45.243Z,95689.56
2018-06-29T06:17:31.982Z,95694.70
2018-06-29T06:20:15.342Z,95687.77
2018-06-29T06:23:00.139Z,95690.71
2018-06-29T06:25:34.142Z,95688.02
2018-06-29T06:28:06.445Z,95694.70
2018-06-29T06:30:42.212Z,95701.53
2018-06-29T06:33:21.338Z,95708.84
2018-06-29T06:35:56.931Z,95709.07
2018-06-29T06:38:29.456Z,95717.45
2018-06-29T06:41:11.831Z,95705.38
2018-06-29T06:43:40.868Z,95705.70
2018-06-29T06:46:10.066Z,95712.72
2018-06-29T06:48:54.993Z,95716.62
2018-06-29T06:51:36.233Z,95712.80
2018-06-29T06:54:05.479Z,95706.55
2018-06-29T06:56:44.729Z,95711.75
2018-06-29T06:59:14.111Z,95712.70
2018-06-29T07:01:45.763Z,95713.81
2018-06-29T07:04:15.133Z,95716.47
2018-06-29T07:06:44.310Z,95723.11
2018-06-29T07:09:16.217Z,95727.42
2018-06-29T07:11:45.469Z,95725.67
2018-06-29T07:14:15.750Z,95727.45
2018-06-29T07:17:01.226Z,95726.82
2018-06-29T07:19:42.491Z,95729.04
2018-06-29T07:22:11.678Z,95728.36
2018-06-29T07:24:43.753Z,95716.50
2018-06-29T07:27:18.511Z,95724.45
2018-06-29T07:30:20.556Z,95726.05
2018-06-29T07:32:55.656Z,95722.52
2018-06-29T07:35:28.364Z,95723.55
2018-06-29T07:37:57.813Z,95724.42
2018-06-29T07:40:27.878Z,95720.56
2018-06-29T07:43:27.453Z,95726.97
2018-06-29T07:45:57.792Z,95731.86
2018-06-29T07:48:37.518Z,95732.70
2018-06-29T07:51:13.692Z,95727.46
2018-06-29T07:53:53.287Z,95732.50
2018-06-29T07:56:22.752Z,95729.18
2018-06-29T08:02:00.110Z,95726.84
2018-06-29T08:04:35.455Z,95724.38
2018-06-29T08:07:09.871Z,95727.33
2018-06-29T08:09:42.306Z,95726.42
2018-06-29T08:12:17.532Z,95734.11
2018-06-29T08:17:43.459Z,95726.91
2018-06-29T08:23:28.401Z,95730.67
2018-06-29T08:29:05.244Z,95726.67
2018-06-29T08:31:36.337Z,95720.17
2018-06-29T08:38:30.392Z,95718.55
2018-06-29T08:41:05.128Z,95718.05
2018-06-29T08:43:34.467Z,95721.48
2018-06-29T08:46:04.431Z,95716.80
2018-06-29T08:48:45.702Z,95717.69
2018-06-29T08:52:05.490Z,95722.73
2018-06-29T08:54:37.949Z,95717.58
2018-06-29T08:57:07.225Z,95713.72
2018-06-29T09:00:11.497Z,95719.19
2018-06-29T09:02:43.253Z,95720.02
2018-06-29T09:05:13.617Z,95716.23
2018-06-29T09:07:45.693Z,95713.71
2018-06-29T09:13:05.964Z,95718.59
2018-06-29T09:15:35.057Z,95716.12
2018-06-29T09:18:20.478Z,95720.10
2018-06-29T09:21:13.584Z,95724.22
2018-06-29T09:24:09.107Z,95725.11
2018-06-29T09:26:38.341Z,95734.62
2018-06-29T09:29:09.938Z,95733.80
2018-06-29T09:31:42.250Z,95739.31
2018-06-29T09:34:13.082Z,95736.17
2018-06-29T09:36:44.713Z,95728.47
2018-06-29T09:39:18.189Z,95728.78
2018-06-29T09:41:49.041Z,95725.28
2018-06-29T09:44:20.953Z,95721.35
2018-06-29T09:46:50.756Z,95719.09
2018-06-29T09:49:19.827Z,95726.09
2018-06-29T09:51:49.779Z,95723.31
2018-06-29T09:54:19.835Z,95727.23
2018-06-29T09:56:48.983Z,95729.66
2018-06-29T09:59:18.202Z,95730.28
2018-06-29T10:01:53.871Z,95731.49
2018-06-29T10:06:54.591Z,95729.45
2018-06-29T10:09:35.696Z,95733.09
2018-06-29T10:12:04.583Z,95736.22
2018-06-29T10:14:49.765Z,95735.72
2018-06-29T10:17:20.564Z,95746.22
2018-06-29T10:19:51.267Z,95745.97
2018-06-29T10:22:22.816Z,95745.97
2018-06-29T10:24:55.752Z,95747.63
2018-06-29T10:27:24.816Z,95746.05
2018-06-29T10:29:54.391Z,95748.58
2018-06-29T10:32:25.566Z,95744.47
2018-06-29T10:34:55.492Z,95745.00
2018-06-29T10:37:28.089Z,95737.75
2018-06-29T10:40:04.765Z,95728.54
2018-06-29T10:42:36.700Z,95728.47
2018-06-29T10:45:10.042Z,95719.77
2018-06-29T10:47:40.444Z,95720.86
2018-06-29T10:50:09.388Z,95709.52
2018-06-29T10:52:39.639Z,95712.19
2018-06-29T10:55:10.921Z,95709.08
2018-06-29T10:57:39.803Z,95703.54
2018-06-29T11:00:08.815Z,95702.30
2018-06-29T11:02:37.923Z,95704.86
2018-06-29T11:05:06.990Z,95700.90
2018-06-29T11:07:35.931Z,95705.01
2018-06-29T11:10:05.251Z,95693.97
2018-06-29T11:12:33.936Z,95690.95
2018-06-29T11:15:02.595Z,95689.48
2018-06-29T11:17:31.467Z,95684.67
2018-06-29T11:20:01.309Z,95689.17
2018-06-29T11:22:33.200Z,95685.67
2018-06-29T11:25:02.102Z,95687.73
2018-06-29T11:27:31.413Z,95691.25
2018-06-29T11:30:00.432Z,95700.51
2018-06-29T11:32:31.322Z,95698.31
2018-06-29T11:35:02.780Z,95701.60
2018-06-29T11:37:31.819Z,95688.83
2018-06-29T11:40:01.035Z,95687.73
2018-06-29T11:42:29.951Z,95694.31
2018-06-29T11:44:58.855Z,95690.03
2018-06-29T11:47:27.760Z,95687.58
2018-06-29T11:49:56.923Z,95687.58
2018-06-29T11:52:25.628Z,95694.48
2018-06-29T11:54:54.439Z,95689.43
2018-06-29T11:57:23.576Z,95683.80
2018-06-29T11:59:52.821Z,95691.23
2018-06-29T12:02:21.795Z,95687.94
2018-06-29T12:04:50.779Z,95675.36
2018-06-29T12:07:24.614Z,95678.26
2018-06-29T12:09:53.586Z,95680.45
2018-06-29T12:12:22.869Z,95684.77
2018-06-29T12:14:51.963Z,95676.22
2018-06-29T12:17:21.043Z,95676.22
2018-06-29T12:19:49.993Z,95678.43
2018-06-29T12:22:19.310Z,95666.31
2018-06-29T12:24:48.341Z,95673.39
2018-06-29T12:27:18.154Z,95673.55
2018-06-29T12:29:47.060Z,95671.93
2018-06-29T12:32:15.997Z,95684.59
2018-06-29T12:34:45.133Z,95678.92
2018-06-29T12:37:14.476Z,95674.26
2018-06-29T12:39:43.391Z,95680.28
2018-06-29T12:42:12.383Z,95683.25
2018-06-29T12:44:41.481Z,95680.48
2018-06-29T12:47:10.229Z,95681.58
2018-06-29T12:49:38.873Z,95677.48
2018-06-29T12:52:07.834Z,95677.19
2018-06-29T12:54:36.855Z,95674.70
2018-06-29T12:57:05.889Z,95675.04
2018-06-29T12:59:34.766Z,95674.06
2018-06-29T13:02:03.760Z,95673.20
2018-06-29T13:04:32.699Z,95678.27
2018-06-29T13:07:01.731Z,95671.05
2018-06-29T13:09:30.662Z,95670.03
2018-06-29T13:11:59.876Z,95665.53
2018-06-29T13:14:28.799Z,95673.96
2018-06-29T13:16:58.668Z,95669.23
2018-06-29T13:19:27.498Z,95676.59
2018-06-29T13:21:56.245Z,95676.16
2018-06-29T13:24:24.888Z,95670.13
2018-06-29T13:26:53.520Z,95671.66
2018-06-29T13:29:23.220Z,95665.33
2018-06-29T13:31:52.297Z,95666.21
2018-06-29T13:34:21.262Z,95662.91
2018-06-29T13:36:50.319Z,95671.90
2018-06-29T13:39:20.371Z,95665.55
2018-06-29T13:41:49.303Z,95674.41
2018-06-29T13:44:18.152Z,95673.36
2018-06-29T13:46:47.013Z,95669.55
2018-06-29T13:49:15.654Z,95669.20
2018-06-29T13:51:44.367Z,95678.14
2018-06-29T13:54:13.021Z,95669.34
2018-06-29T13:56:41.980Z,95669.45
2018-06-29T13:59:10.759Z,95667.08
2018-06-29T14:01:40.224Z,95667.38
2018-06-29T14:04:09.181Z,95668.47
2018-06-29T14:06:37.995Z,95666.72
2018-06-29T14:09:08.451Z,95664.23
2018-06-29T14:11:37.165Z,95657.53
2018-06-29T14:14:05.958Z,95661.37
2018-06-29T14:16:34.911Z,95663.55
2018-06-29T14:19:04.166Z,95652.05
2018-06-29T14:21:33.207Z,95655.95
2018-06-29T14:24:02.136Z,95653.77
2018-06-29T14:26:31.158Z,95651.36
2018-06-29T14:29:00.137Z,95653.08
2018-06-29T14:31:29.444Z,95659.09
2018-06-29T14:33:58.461Z,95662.83
2018-06-29T14:36:27.515Z,95659.03
2018-06-29T14:38:56.901Z,95664.53
2018-06-29T14:41:25.839Z,95654.83
2018-06-29T14:43:54.974Z,95657.53
2018-06-29T14:46:24.119Z,95654.87
2018-06-29T14:51:23.928Z,95651.70
2018-06-29T14:53:52.924Z,95653.83
2018-06-29T14:56:21.920Z,95651.70
2018-06-29T14:58:50.887Z,95646.42
2018-06-29T15:01:19.874Z,95648.98
2018-06-29T15:03:48.980Z,95652.59
2018-06-29T15:06:17.992Z,95655.73
2018-06-29T15:08:47.039Z,95663.98
2018-06-29T15:11:16.185Z,95660.91
2018-06-29T15:13:45.265Z,95659.67
2018-06-29T15:16:34.227Z,95655.39
2018-06-29T15:19:03.167Z,95657.59
2018-06-29T15:21:32.165Z,95657.81
2018-06-29T15:24:02.189Z,95662.13
2018-06-29T15:26:31.237Z,95674.37
2018-06-29T15:29:01.165Z,95682.64
2018-06-29T15:31:30.242Z,95683.39
2018-06-29T15:34:00.167Z,95681.84
2018-06-29T15:36:29.195Z,95677.00
2018-06-29T15:38:58.842Z,95679.55
2018-06-29T15:41:28.767Z,95687.33
2018-06-29T15:43:57.489Z,95684.00
2018-06-29T15:46:27.565Z,95674.42
2018-06-29T15:48:56.672Z,95669.41
2018-06-29T15:51:25.449Z,95666.31
2018-06-29T15:53:54.237Z,95665.59
2018-06-29T15:56:24.013Z,95663.72
2018-06-29T15:58:53.709Z,95668.23
2018-06-29T16:01:42.865Z,95672.35
2018-06-29T16:04:15.774Z,95659.77
2018-06-29T16:06:45.612Z,95662.88
2018-06-29T16:09:14.732Z,95664.14
2018-06-29T16:11:43.671Z,95651.13
2018-06-29T16:14:12.788Z,95651.87
2018-06-29T16:16:41.775Z,95651.14
2018-06-29T16:19:11.036Z,95652.02
2018-06-29T16:21:39.752Z,95653.40
2018-06-29T16:24:08.554Z,95656.89
2018-06-29T16:26:38.886Z,95664.47
2018-06-29T16:29:07.951Z,95659.44
2018-06-29T16:31:38.222Z,95665.20
2018-06-29T16:34:12.218Z,95668.52
2018-06-29T16:36:41.147Z,95682.67
2018-06-29T16:39:12.347Z,95695.05
2018-06-29T16:41:43.391Z,95701.47
2018-06-29T16:44:12.349Z,95699.89
2018-06-29T16:46:41.694Z,95689.95
2018-06-29T16:49:10.846Z,95677.59
2018-06-29T16:51:39.859Z,95667.23
2018-06-29T16:54:09.004Z,95673.28
2018-06-29T16:56:38.110Z,95674.46
2018-06-29T16:59:07.230Z,95682.00
2018-06-29T17:01:36.247Z,95684.00
2018-06-29T17:04:05.241Z,95691.23
2018-06-29T17:06:34.131Z,95694.55
2018-06-29T17:09:03.342Z,95697.08
2018-06-29T17:11:32.305Z,95693.66
2018-06-29T17:14:01.410Z,95692.42
2018-06-29T17:16:30.561Z,95692.44
2018-06-29T17:18:59.579Z,95685.21
2018-06-29T17:21:29.250Z,95692.45
2018-06-29T17:23:58.453Z,95691.55
2018-06-29T17:26:29.686Z,95690.83
2018-06-29T17:28:58.838Z,95690.03
2018-06-29T17:31:33.873Z,95696.36
2018-06-29T17:34:04.967Z,95696.37
2018-06-29T17:36:34.052Z,95687.40
2018-06-29T17:39:04.464Z,95691.35
2018-06-29T17:41:33.414Z,95697.47
2018-06-29T17:44:02.425Z,95692.03
2018-06-29T17:46:31.495Z,95695.80
2018-06-29T17:49:00.482Z,95692.64
2018-06-29T17:51:29.549Z,95692.66
2018-06-29T17:53:58.700Z,95699.25
2018-06-29T17:56:27.949Z,95698.62
2018-06-29T17:58:56.927Z,95694.02
2018-06-29T18:01:26.183Z,95699.56
2018-06-29T18:03:55.277Z,95708.18
2018-06-29T18:06:24.365Z,95707.39
2018-06-29T18:08:54.239Z,95698.94
2018-06-29T18:11:23.295Z,95705.53
2018-06-29T18:13:52.215Z,95707.92
2018-06-29T18:16:21.315Z,95711.04
2018-06-29T18:18:50.277Z,95707.27
2018-06-29T18:21:19.274Z,95710.80
2018-06-29T18:23:48.050Z,95710.23
2018-06-29T18:26:16.953Z,95713.39
2018-06-29T18:28:45.980Z,95717.08
2018-06-29T18:31:14.747Z,95716.20
2018-06-29T18:33:43.417Z,95713.27
2018-06-29T18:36:12.334Z,95720.30
2018-06-29T18:38:41.215Z,95724.11
2018-06-29T18:41:10.295Z,95733.80
2018-06-29T18:43:39.189Z,95732.17
2018-06-29T18:46:08.583Z,95732.34
2018-06-29T18:48:37.635Z,95733.88
2018-06-29T18:51:06.575Z,95729.64
2018-06-29T18:53:35.490Z,95733.49
2018-06-29T18:56:04.470Z,95735.54
2018-06-29T18:58:33.438Z,95741.66
2018-06-29T19:01:02.307Z,95738.02
2018-06-29T19:03:31.031Z,95742.90
2018-06-29T19:05:59.843Z,95736.25
2018-06-29T19:08:28.767Z,95740.81
2018-06-29T19:10:57.720Z,95736.02
2018-06-29T19:13:26.377Z,95743.13
2018-06-29T19:15:55.261Z,95747.22
2018-06-29T19:18:24.217Z,95742.02
2018-06-29T19:20:53.184Z,95738.53
2018-06-29T19:23:22.155Z,95748.20
2018-06-29T19:25:53.010Z,95753.92
2018-06-29T19:28:21.764Z,95757.21
2018-06-29T19:30:50.648Z,95756.41
2018-06-29T19:33:19.676Z,95759.70
2018-06-29T19:36:04.508Z,95762.39
2018-06-29T19:38:33.539Z,95770.98
2018-06-29T19:41:02.810Z,95768.70
2018-06-29T19:43:31.818Z,95768.70
2018-06-29T19:46:00.846Z,95768.95
2018-06-29T19:48:29.754Z,95769.81
2018-06-29T19:50:58.720Z,95780.61
2018-06-29T19:53:27.689Z,95776.09
2018-06-29T19:55:56.640Z,95778.36
2018-06-29T19:58:25.624Z,95780.23
2018-06-29T20:00:54.968Z,95784.03
2018-06-29T20:03:30.443Z,95783.61
2018-06-29T20:06:00.261Z,95788.91
2018-06-29T20:08:28.992Z,95787.56
2018-06-29T20:10:57.823Z,95795.50
2018-06-29T20:16:17.329Z,95798.40
2018-06-29T20:18:47.189Z,95794.15
2018-06-29T20:21:16.292Z,95802.36
2018-06-29T20:23:45.262Z,95800.33
2018-06-29T20:26:14.175Z,95797.44
2018-06-29T20:28:43.175Z,95803.74
2018-06-29T20:31:12.411Z,95810.88
2018-06-29T20:33:41.556Z,95810.14
2018-06-29T20:36:10.570Z,95809.37
2018-06-29T20:38:39.575Z,95809.07
2018-06-29T20:41:14.073Z,95809.74
2018-06-29T20:43:43.133Z,95803.75
2018-06-29T20:46:12.099Z,95808.19
2018-06-29T20:48:41.106Z,95809.98
2018-06-29T20:51:10.126Z,95807.94
2018-06-29T20:53:39.169Z,95816.41
2018-06-29T20:56:08.396Z,95807.20
2018-06-29T20:58:37.096Z,95806.08
2018-06-29T21:01:06.035Z,95807.13
2018-06-29T21:03:35.002Z,95815.08
2018-06-29T21:06:04.162Z,95813.96
2018-06-29T21:08:33.203Z,95814.33
2018-06-29T21:11:02.219Z,95826.04
2018-06-29T21:13:31.182Z,95821.69
2018-06-29T21:16:00.723Z,95819.77
2018-06-29T21:18:29.753Z,95818.87
2018-06-29T21:20:58.899Z,95825.62
2018-06-29T21:23:34.512Z,95823.42
2018-06-29T21:26:03.501Z,95823.72
2018-06-29T21:28:33.577Z,95822.13
2018-06-29T21:31:02.545Z,95821.53
2018-06-29T21:33:32.139Z,95820.74
2018-06-29T21:36:01.376Z,95823.83
2018-06-29T21:38:30.725Z,95819.66
2018-06-29T21:41:00.296Z,95828.75
2018-06-29T21:43:29.400Z,95827.83
2018-06-29T21:45:58.624Z,95821.99
2018-06-29T21:48:27.802Z,95826.42
2018-06-29T21:50:57.002Z,95821.33
2018-06-29T21:53:26.533Z,95827.34
2018-06-29T21:55:55.647Z,95821.27
2018-06-29T21:58:24.677Z,95824.73
2018-06-29T22:00:54.977Z,95823.63
2018-06-29T22:03:24.595Z,95823.92
2018-06-29T22:05:54.757Z,95819.58
2018-06-29T22:08:24.642Z,95822.48
2018-06-29T22:10:53.789Z,95821.23
2018-06-29T22:13:22.900Z,95819.01
2018-06-29T22:15:52.437Z,95821.45
2018-06-29T22:18:21.355Z,95822.30
2018-06-29T22:20:51.892Z,95825.44
2018-06-29T22:23:20.854Z,95817.92
2018-06-29T22:25:52.758Z,95825.08
2018-06-29T22:28:21.709Z,95819.97
2018-06-29T22:30:50.862Z,95816.86
2018-06-29T22:33:28.379Z,95819.25
2018-06-29T22:35:57.308Z,95812.42
2018-06-29T22:38:26.524Z,95815.94
2018-06-29T22:40:55.493Z,95815.03
2018-06-29T22:43:24.772Z,95814.93
2018-06-29T22:45:54.256Z,95807.34
2018-06-29T22:48:23.273Z,95808.54
2018-06-29T22:50:52.199Z,95808.63
2018-06-29T22:53:21.261Z,95816.70
2018-06-29T22:55:50.170Z,95811.80
2018-06-29T22:58:19.127Z,95811.16
2018-06-29T23:00:48.069Z,95811.57
2018-06-29T23:03:17.035Z,95807.09
2018-06-29T23:05:45.922Z,95805.84
2018-06-29T23:08:14.907Z,95800.37
2018-06-29T23:10:46.910Z,95795.22
2018-06-29T23:13:16.063Z,95798.67
2018-06-29T23:15:44.935Z,95796.25
2018-06-29T23:18:13.951Z,95796.38
2018-06-29T23:20:42.947Z,95792.09
2018-06-29T23:23:12.042Z,95797.45
2018-06-29T23:25:41.123Z,95789.85
2018-06-29T23:28:10.115Z,95789.20
2018-06-29T23:30:39.126Z,95789.56
2018-06-29T23:33:08.118Z,95791.50
2018-06-29T23:35:37.025Z,95787.91
2018-06-29T23:38:06.235Z,95783.50
2018-06-29T23:40:35.419Z,95783.83
2018-06-29T23:43:04.435Z,95793.09
2018-06-29T23:45:39.952Z,95780.90
2018-06-29T23:48:08.896Z,95783.30
2018-06-29T23:50:37.966Z,95776.83
2018-06-29T23:53:06.933Z,95779.11
2018-06-29T23:55:35.968Z,95781.08
2018-06-29T23:58:04.904Z,95775.95
